createdAt,value
2023-04-15T00:01:01.509Z,74.01
2023-04-15T00:03:30.144Z,73.99
2023-04-15T00:05:58.922Z,74.34
2023-04-15T00:08:27.482Z,74.16
2023-04-15T00:10:55.640Z,73.99
2023-04-15T00:13:23.797Z,74.38
2023-04-15T00:15:52.382Z,74.47
2023-04-15T00:18:20.360Z,74.06
2023-04-15T00:20:48.855Z,74.18
2023-04-15T00:23:18.182Z,74.52
2023-04-15T00:25:46.490Z,74.59
2023-04-15T00:28:14.557Z,74.98
2023-04-15T00:30:44.562Z,75.04
2023-04-15T00:33:13.960Z,74.79
2023-04-15T00:35:42.137Z,75.07
2023-04-15T00:38:10.392Z,76.09
2023-04-15T00:40:38.623Z,75.88
2023-04-15T00:43:07.186Z,75.94
2023-04-15T00:45:35.722Z,75.72
2023-04-15T00:48:04.686Z,75.77
2023-04-15T00:50:33.476Z,76.02
2023-04-15T00:53:01.653Z,76.00
2023-04-15T00:55:29.810Z,76.06
2023-04-15T00:57:58.181Z,75.93
2023-04-15T01:00:27.065Z,76.83
2023-04-15T01:02:55.166Z,76.24
2023-04-15T01:05:23.727Z,76.21
2023-04-15T01:07:51.992Z,76.46
2023-04-15T01:10:19.945Z,76.67
2023-04-15T01:12:48.172Z,76.89
2023-04-15T01:15:16.400Z,77.30
2023-04-15T01:17:44.821Z,77.77
2023-04-15T01:20:13.448Z,77.44
2023-04-15T01:22:41.780Z,77.88
2023-04-15T01:25:13.263Z,78.21
2023-04-15T01:27:42.684Z,78.13
2023-04-15T01:30:11.620Z,78.28
2023-04-15T01:32:39.661Z,79.50
2023-04-15T01:35:07.973Z,78.68
2023-04-15T01:37:36.931Z,78.67
2023-04-15T01:40:05.531Z,79.32
2023-04-15T01:42:34.103Z,79.39
2023-04-15T01:45:02.818Z,80.11
2023-04-15T01:47:31.298Z,80.38
2023-04-15T01:49:59.278Z,79.91
2023-04-15T01:52:27.339Z,80.22
2023-04-15T01:54:55.275Z,80.76
2023-04-15T01:57:23.417Z,81.14
2023-04-15T01:59:54.360Z,81.31
2023-04-15T02:02:22.963Z,81.07
2023-04-15T02:04:51.341Z,81.75
2023-04-15T02:07:20.959Z,81.72
2023-04-15T02:09:48.985Z,81.27
2023-04-15T02:12:17.083Z,82.50
2023-04-15T02:14:46.306Z,82.58
2023-04-15T02:17:14.221Z,82.28
2023-04-15T02:19:44.698Z,81.94
2023-04-15T02:22:18.705Z,81.89
2023-04-15T02:24:47.897Z,81.97
2023-04-15T02:27:17.366Z,83.01
2023-04-15T02:29:46.065Z,82.34
2023-04-15T02:32:14.640Z,82.29
2023-04-15T02:34:43.030Z,82.51
2023-04-15T02:37:12.565Z,81.84
2023-04-15T02:39:40.680Z,83.58
2023-04-15T02:42:08.743Z,84.07
2023-04-15T02:44:38.153Z,83.96
2023-04-15T02:47:07.721Z,83.29
2023-04-15T02:49:35.883Z,83.83
2023-04-15T02:52:04.066Z,83.31
2023-04-15T02:54:34.301Z,83.83
2023-04-15T02:57:04.098Z,84.16
2023-04-15T02:59:32.324Z,83.84
2023-04-15T03:02:57.358Z,84.03
2023-04-15T03:05:44.611Z,83.42
2023-04-15T03:08:14.911Z,84.21
2023-04-15T03:10:42.870Z,84.54
2023-04-15T03:13:11.399Z,84.11
2023-04-15T03:15:40.081Z,84.08
2023-04-15T03:18:08.232Z,83.72
2023-04-15T03:20:36.638Z,84.29
2023-04-15T03:23:05.347Z,84.63
2023-04-15T03:25:33.435Z,85.04
2023-04-15T03:28:01.580Z,84.58
2023-04-15T03:30:29.684Z,85.20
2023-04-15T03:32:57.939Z,85.18
2023-04-15T03:35:27.120Z,85.18
2023-04-15T03:37:57.480Z,85.71
2023-04-15T03:40:26.700Z,84.63
2023-04-15T03:42:54.793Z,85.26
2023-04-15T03:45:22.829Z,84.82
2023-04-15T03:47:51.244Z,84.56
2023-04-15T03:50:19.422Z,84.15
2023-04-15T03:52:48.290Z,84.48
2023-04-15T03:55:17.652Z,84.92
2023-04-15T03:57:46.089Z,85.02
2023-04-15T04:00:14.246Z,84.76
2023-04-15T04:02:42.317Z,84.28
2023-04-15T04:05:10.860Z,85.05
2023-04-15T04:07:38.881Z,85.53
2023-04-15T04:10:07.305Z,85.54
2023-04-15T04:12:35.424Z,85.79
2023-04-15T04:15:03.940Z,85.04
2023-04-15T04:17:31.988Z,85.09
2023-04-15T04:20:00.211Z,85.09
2023-04-15T04:22:28.295Z,85.29
2023-04-15T04:24:56.842Z,85.83
2023-04-15T04:27:25.571Z,85.23
2023-04-15T04:29:53.480Z,85.15
2023-04-15T04:32:21.931Z,86.18
2023-04-15T04:34:50.145Z,86.15
2023-04-15T04:37:18.304Z,86.56
2023-04-15T04:39:46.290Z,85.81
2023-04-15T04:42:14.459Z,86.62
2023-04-15T04:44:42.933Z,87.08
2023-04-15T04:47:11.588Z,86.77
2023-04-15T04:49:39.861Z,85.89
2023-04-15T04:52:08.007Z,86.42
2023-04-15T04:54:35.993Z,86.91
2023-04-15T04:57:05.082Z,86.95
2023-04-15T04:59:33.355Z,86.20
2023-04-15T05:02:01.581Z,86.02
2023-04-15T05:04:29.694Z,86.38
2023-04-15T05:06:58.506Z,85.93
2023-04-15T05:09:26.680Z,85.92
2023-04-15T05:11:54.657Z,86.07
2023-04-15T05:14:23.403Z,86.13
2023-04-15T05:16:51.584Z,86.26
2023-04-15T05:19:19.603Z,86.15
2023-04-15T05:21:47.596Z,85.94
2023-04-15T05:24:15.727Z,86.12
2023-04-15T05:26:44.057Z,86.34
2023-04-15T05:29:12.123Z,87.01
2023-04-15T05:31:40.234Z,87.01
2023-04-15T05:34:08.715Z,86.29
2023-04-15T05:36:36.839Z,86.60
2023-04-15T05:39:04.982Z,86.44
2023-04-15T05:41:33.207Z,86.91
2023-04-15T05:44:01.652Z,86.63
2023-04-15T05:46:29.623Z,86.68
2023-04-15T05:48:57.847Z,86.81
2023-04-15T05:51:26.599Z,87.10
2023-04-15T05:53:54.648Z,86.82
2023-04-15T05:56:22.819Z,86.55
2023-04-15T05:58:53.367Z,86.51
2023-04-15T06:01:22.437Z,86.80
2023-04-15T06:03:51.390Z,87.23
2023-04-15T06:06:20.639Z,87.38
2023-04-15T06:08:48.473Z,87.55
2023-04-15T06:11:16.488Z,87.35
2023-04-15T06:13:44.743Z,87.07
2023-04-15T06:16:12.695Z,87.86
2023-04-15T06:18:40.811Z,87.65
2023-04-15T06:21:08.973Z,87.40
2023-04-15T06:23:37.244Z,87.58
2023-04-15T06:26:05.515Z,87.44
2023-04-15T06:28:33.592Z,87.48
2023-04-15T06:31:02.126Z,87.94
2023-04-15T06:33:30.847Z,88.12
2023-04-15T06:35:59.234Z,87.55
2023-04-15T06:38:27.135Z,87.47
2023-04-15T06:40:55.574Z,87.89
2023-04-15T06:43:23.714Z,88.36
2023-04-15T06:45:51.850Z,88.55
2023-04-15T06:48:19.983Z,88.02
2023-04-15T06:50:48.360Z,88.76
2023-04-15T06:53:16.354Z,88.40
2023-04-15T06:55:45.002Z,88.20
2023-04-15T06:58:15.405Z,88.20
2023-04-15T07:00:43.564Z,88.72
2023-04-15T07:03:13.281Z,88.71
2023-04-15T07:05:41.871Z,88.82
2023-04-15T07:08:09.812Z,88.56
2023-04-15T07:10:38.265Z,89.03
2023-04-15T07:13:07.530Z,88.95
2023-04-15T07:15:35.856Z,88.96
2023-04-15T07:18:04.376Z,89.16
2023-04-15T07:20:32.656Z,89.50
2023-04-15T07:23:00.694Z,89.79
2023-04-15T07:25:28.748Z,89.59
2023-04-15T07:27:57.174Z,89.20
2023-04-15T07:30:25.286Z,88.93
2023-04-15T07:32:53.483Z,88.82
2023-04-15T07:35:21.856Z,88.54
2023-04-15T07:37:49.949Z,88.45
2023-04-15T07:40:18.348Z,88.70
2023-04-15T07:42:48.595Z,88.52
2023-04-15T07:45:17.005Z,88.31
2023-04-15T07:47:45.006Z,88.81
2023-04-15T07:50:13.135Z,89.20
2023-04-15T07:52:43.182Z,89.50
2023-04-15T07:55:11.677Z,89.03
2023-04-15T07:57:39.744Z,89.20
2023-04-15T08:00:10.594Z,89.24
2023-04-15T08:02:41.950Z,89.54
2023-04-15T08:05:11.009Z,89.57
2023-04-15T08:07:39.027Z,89.70
2023-04-15T08:10:10.696Z,89.36
2023-04-15T08:12:44.936Z,89.40
2023-04-15T09:34:38.271Z,89.46
2023-04-15T09:37:08.118Z,89.81
2023-04-15T09:39:50.366Z,90.07
2023-04-15T09:42:27.500Z,89.94
2023-04-15T09:44:55.589Z,89.51
2023-04-15T09:47:33.051Z,89.71
2023-04-15T09:50:02.525Z,89.46
2023-04-15T09:52:32.169Z,89.85
2023-04-15T09:55:01.092Z,90.03
2023-04-15T09:57:36.921Z,90.02
2023-04-15T10:00:08.420Z,90.33
2023-04-15T10:02:40.902Z,90.45
2023-04-15T10:05:14.991Z,90.65
2023-04-15T10:07:43.765Z,90.51
2023-04-15T10:10:16.276Z,90.92
2023-04-15T10:12:45.603Z,90.53
2023-04-15T10:15:17.891Z,90.48
2023-04-15T10:17:48.304Z,89.99
2023-04-15T10:20:19.986Z,89.94
2023-04-15T10:22:50.205Z,90.07
2023-04-15T10:25:19.285Z,90.24
2023-04-15T10:27:49.883Z,90.10
2023-04-15T10:30:25.936Z,90.06
2023-04-15T10:32:55.587Z,89.90
2023-04-15T10:35:25.193Z,90.42
2023-04-15T10:37:56.374Z,90.82
2023-04-15T10:40:35.300Z,90.64
2023-04-15T10:43:03.927Z,90.40
2023-04-15T10:45:39.422Z,90.98
2023-04-15T10:48:09.209Z,90.92
2023-04-15T10:50:40.276Z,90.66
2023-04-15T10:53:11.299Z,90.39
2023-04-15T10:55:39.379Z,90.57
2023-04-15T10:58:10.524Z,90.89
2023-04-15T11:00:40.309Z,90.86
2023-04-15T11:03:10.114Z,91.11
2023-04-15T11:05:41.732Z,91.37
2023-04-15T11:08:12.950Z,91.47
2023-04-15T11:10:41.144Z,91.64
2023-04-15T11:13:12.039Z,91.69
2023-04-15T11:16:05.262Z,91.64
2023-04-15T11:18:34.808Z,91.71
2023-04-15T11:21:07.875Z,91.34
2023-04-15T11:23:39.920Z,91.11
2023-04-15T11:26:12.218Z,91.42
2023-04-15T11:28:42.898Z,91.47
2023-04-15T11:31:13.561Z,91.50
2023-04-15T11:33:56.664Z,91.18
2023-04-15T11:36:30.478Z,91.02
2023-04-15T11:38:59.778Z,90.81
2023-04-15T11:41:28.926Z,90.55
2023-04-15T11:43:56.914Z,90.30
2023-04-15T11:46:32.163Z,90.50
2023-04-15T11:49:01.778Z,90.27
2023-04-15T11:51:34.276Z,90.71
2023-04-15T11:54:03.001Z,90.82
2023-04-15T11:56:32.128Z,90.79
2023-04-15T11:59:00.335Z,90.90
2023-04-15T12:01:46.687Z,90.91
2023-04-15T12:04:25.362Z,90.64
2023-04-15T12:06:54.188Z,90.38
2023-04-15T12:09:22.326Z,90.11
2023-04-15T12:11:57.727Z,89.91
2023-04-15T12:14:31.278Z,89.80
2023-04-15T12:17:01.613Z,89.73
2023-04-15T12:19:43.355Z,89.40
2023-04-15T12:22:13.102Z,89.02
2023-04-15T12:24:52.516Z,88.87
2023-04-15T12:27:21.375Z,88.57
2023-04-15T12:29:49.813Z,88.63
2023-04-15T12:32:21.610Z,88.53
2023-04-15T12:34:52.390Z,88.70
2023-04-15T12:37:22.282Z,88.69
2023-04-15T12:39:51.660Z,88.98
2023-04-15T12:42:20.737Z,88.74
2023-04-15T12:44:48.707Z,88.94
2023-04-15T12:47:16.823Z,89.02
2023-04-15T12:49:45.868Z,89.17
2023-04-15T12:52:16.683Z,88.91
2023-04-15T12:54:44.938Z,88.78
2023-04-15T12:57:12.988Z,89.04
2023-04-15T12:59:41.197Z,88.93
2023-04-15T13:02:09.225Z,88.93
2023-04-15T13:04:37.587Z,88.90
2023-04-15T13:07:05.782Z,88.99
2023-04-15T13:09:34.141Z,89.23
2023-04-15T13:12:02.224Z,89.19
2023-04-15T13:14:31.263Z,88.72
2023-04-15T13:16:59.495Z,88.36
2023-04-15T13:19:27.919Z,88.59
2023-04-15T13:21:56.246Z,88.51
2023-04-15T13:24:24.232Z,88.64
2023-04-15T13:26:53.710Z,88.27
2023-04-15T13:29:22.328Z,88.06
2023-04-15T13:31:50.594Z,88.03
2023-04-15T13:34:18.957Z,87.93
2023-04-15T13:36:47.335Z,87.34
2023-04-15T13:39:15.489Z,87.14
2023-04-15T13:41:43.646Z,86.88
2023-04-15T13:44:12.785Z,85.74
2023-04-15T13:46:42.765Z,84.58
2023-04-15T13:49:10.947Z,84.91
2023-04-15T13:51:38.928Z,85.34
2023-04-15T13:54:07.155Z,85.33
2023-04-15T13:56:35.575Z,85.46
2023-04-15T13:59:03.853Z,85.46
2023-04-15T14:01:32.225Z,85.02
2023-04-15T14:04:00.569Z,84.78
2023-04-15T14:06:29.121Z,84.86
2023-04-15T14:08:57.370Z,84.51
2023-04-15T14:11:25.372Z,84.45
2023-04-15T14:13:56.068Z,84.43
2023-04-15T14:16:24.325Z,84.31
2023-04-15T14:18:52.666Z,84.29
2023-04-15T14:21:21.025Z,84.23
2023-04-15T14:23:49.055Z,84.15
2023-04-15T14:26:17.125Z,84.41
2023-04-15T14:28:45.266Z,83.73
2023-04-15T14:31:14.349Z,83.07
2023-04-15T14:33:45.018Z,83.38
2023-04-15T14:36:13.276Z,82.89
2023-04-15T14:38:41.492Z,82.83
2023-04-15T14:41:10.253Z,83.16
2023-04-15T14:43:39.434Z,83.06
2023-04-15T14:46:08.627Z,83.06
2023-04-15T14:48:37.173Z,83.07
2023-04-15T14:51:08.693Z,82.90
2023-04-15T14:53:36.714Z,82.71
2023-04-15T14:56:05.376Z,82.56
2023-04-15T14:58:33.610Z,82.23
2023-04-15T15:01:03.061Z,82.13
2023-04-15T15:03:34.084Z,81.92
2023-04-15T15:06:02.413Z,81.89
2023-04-15T15:08:30.593Z,81.93
2023-04-15T15:10:58.856Z,82.03
2023-04-15T15:13:26.948Z,81.99
2023-04-15T15:15:55.184Z,81.54
2023-04-15T15:18:25.721Z,81.38
2023-04-15T15:20:53.796Z,81.48
2023-04-15T15:23:21.724Z,81.32
2023-04-15T15:25:50.012Z,81.05
2023-04-15T15:28:18.302Z,80.72
2023-04-15T15:30:46.307Z,80.55
2023-04-15T15:33:14.376Z,80.44
2023-04-15T15:35:42.505Z,80.66
2023-04-15T15:38:12.237Z,80.77
2023-04-15T15:40:40.551Z,80.75
2023-04-15T15:43:09.020Z,80.79
2023-04-15T15:45:37.045Z,80.94
2023-04-15T15:48:06.026Z,80.92
2023-04-15T15:50:34.542Z,81.12
2023-04-15T15:53:02.560Z,81.18
2023-04-15T15:55:30.719Z,81.16
2023-04-15T15:57:58.651Z,81.04
2023-04-15T16:00:26.519Z,81.07
2023-04-15T16:05:28.588Z,81.11
2023-04-15T16:07:56.699Z,80.90
2023-04-15T16:10:24.754Z,80.71
2023-04-15T16:12:52.921Z,80.73
2023-04-15T16:15:23.940Z,80.58
2023-04-15T16:17:52.359Z,80.49
2023-04-15T16:20:20.718Z,80.48
2023-04-15T16:22:48.818Z,80.51
2023-04-15T16:25:16.943Z,80.53
2023-04-15T16:27:57.637Z,80.61
2023-04-15T16:30:27.470Z,80.49
2023-04-15T16:32:55.537Z,80.37
2023-04-15T16:35:23.484Z,80.25
2023-04-15T16:37:51.531Z,79.99
2023-04-15T16:40:19.744Z,79.99
2023-04-15T16:42:48.437Z,79.83
2023-04-15T16:45:20.006Z,80.02
2023-04-15T16:47:48.127Z,80.05
2023-04-15T16:50:19.011Z,79.81
2023-04-15T16:52:47.413Z,79.78
2023-04-15T16:55:15.869Z,79.89
2023-04-15T16:58:03.240Z,80.01
2023-04-15T17:00:33.237Z,80.02
2023-04-15T17:03:01.511Z,80.00
2023-04-15T17:05:31.969Z,80.02
2023-04-15T17:08:00.400Z,79.98
2023-04-15T17:10:28.310Z,79.93
2023-04-15T17:12:57.678Z,79.94
2023-04-15T17:15:26.700Z,80.03
2023-04-15T17:17:54.924Z,79.93
2023-04-15T17:20:23.100Z,80.01
2023-04-15T17:22:51.583Z,80.21
2023-04-15T17:25:19.656Z,80.25
2023-04-15T17:27:47.612Z,80.37
2023-04-15T17:30:16.009Z,80.48
2023-04-15T17:32:44.329Z,80.58
2023-04-15T17:35:12.455Z,80.64
2023-04-15T17:37:41.113Z,80.71
2023-04-15T17:40:09.516Z,80.80
2023-04-15T17:42:37.392Z,80.97
2023-04-15T17:45:07.502Z,81.08
2023-04-15T17:47:35.649Z,81.19
2023-04-15T17:50:03.853Z,81.32
2023-04-15T17:52:32.185Z,81.47
2023-04-15T17:55:00.391Z,81.48
2023-04-15T17:57:28.881Z,81.70
2023-04-15T17:59:57.647Z,81.82
2023-04-15T18:02:25.835Z,81.81
2023-04-15T18:04:54.236Z,81.87
2023-04-15T18:07:26.047Z,81.84
2023-04-15T18:09:56.068Z,81.88
2023-04-15T18:12:24.204Z,82.12
2023-04-15T18:14:52.971Z,82.25
2023-04-15T18:17:21.034Z,82.24
2023-04-15T18:19:49.144Z,82.11
2023-04-15T18:22:17.740Z,82.13
2023-04-15T18:24:45.878Z,82.25
2023-04-15T18:27:18.399Z,82.09
2023-04-15T18:29:47.464Z,82.14
2023-04-15T18:32:15.420Z,81.97
2023-04-15T18:34:43.647Z,82.03
2023-04-15T18:37:11.871Z,81.98
2023-04-15T18:39:39.916Z,82.02
2023-04-15T18:42:08.125Z,81.99
2023-04-15T18:44:36.126Z,82.07
2023-04-15T18:47:04.317Z,81.94
2023-04-15T18:49:33.413Z,82.13
2023-04-15T18:52:01.378Z,82.06
2023-04-15T18:54:30.753Z,82.17
2023-04-15T18:57:02.281Z,82.16
2023-04-15T18:59:31.978Z,82.29
2023-04-15T19:02:01.507Z,82.43
2023-04-15T19:04:29.978Z,82.62
2023-04-15T19:06:59.344Z,82.58
2023-04-15T19:09:28.973Z,82.50
2023-04-15T19:11:57.809Z,82.71
2023-04-15T19:14:25.996Z,82.67
2023-04-15T19:16:54.283Z,83.04
2023-04-15T19:19:22.558Z,82.85
2023-04-15T19:21:51.190Z,82.88
2023-04-15T19:24:20.126Z,82.83
2023-04-15T19:26:52.633Z,83.01
2023-04-15T19:29:22.036Z,82.96
2023-04-15T19:31:50.720Z,82.99
2023-04-15T19:34:18.716Z,82.86
2023-04-15T19:36:46.911Z,82.83
2023-04-15T19:39:14.842Z,82.90
2023-04-15T19:41:44.503Z,82.98
2023-04-15T19:44:13.849Z,83.15
2023-04-15T19:46:44.245Z,82.87
2023-04-15T19:49:12.537Z,83.12
2023-04-15T19:51:41.600Z,83.14
2023-04-15T19:54:09.483Z,82.94
2023-04-15T19:56:37.514Z,82.96
2023-04-15T19:59:06.039Z,83.04
2023-04-15T20:01:34.081Z,83.10
2023-04-15T20:04:04.206Z,83.00
2023-04-15T20:06:32.852Z,83.12
2023-04-15T20:09:01.132Z,83.25
2023-04-15T20:12:45.606Z,83.23
2023-04-15T20:14:17.937Z,83.13
2023-04-15T20:16:46.265Z,83.19
2023-04-15T20:19:14.749Z,83.23
2023-04-15T20:21:43.130Z,83.16
2023-04-15T20:24:11.243Z,83.24
2023-04-15T20:26:39.795Z,83.06
2023-04-15T20:29:08.906Z,83.32
2023-04-15T20:31:40.122Z,83.33
2023-04-15T20:34:10.658Z,83.31
2023-04-15T20:36:39.971Z,83.24
2023-04-15T20:39:08.141Z,83.21
2023-04-15T20:41:36.097Z,83.21
2023-04-15T20:44:04.301Z,83.20
2023-04-15T20:46:32.390Z,83.39
2023-04-15T20:49:01.012Z,83.32
2023-04-15T20:51:33.114Z,83.28
2023-04-15T20:54:01.439Z,83.30
2023-04-15T20:56:29.547Z,83.31
2023-04-15T20:58:57.743Z,83.33
2023-04-15T21:01:26.062Z,83.32
2023-04-15T21:03:54.174Z,83.38
2023-04-15T21:06:22.261Z,83.42
2023-04-15T21:08:52.602Z,83.38
2023-04-15T21:11:38.811Z,83.40
2023-04-15T21:14:09.371Z,83.40
2023-04-15T21:16:37.388Z,83.48
2023-04-15T21:19:05.723Z,83.38
2023-04-15T21:21:34.154Z,83.66
2023-04-15T21:24:02.370Z,83.67
2023-04-15T21:26:30.392Z,83.57
2023-04-15T21:28:58.606Z,83.60
2023-04-15T21:31:26.647Z,83.56
2023-04-15T21:33:54.565Z,83.54
2023-04-15T21:36:22.643Z,83.80
2023-04-15T21:38:50.753Z,83.91
2023-04-15T21:41:18.694Z,83.85
2023-04-15T21:43:47.243Z,84.01
2023-04-15T21:46:24.217Z,83.97
2023-04-15T21:48:53.701Z,84.03
2023-04-15T21:51:21.822Z,84.04
2023-04-15T21:53:49.674Z,83.91
2023-04-15T21:56:18.008Z,83.84
2023-04-15T21:58:46.303Z,84.06
2023-04-15T22:01:14.434Z,83.85
2023-04-15T22:03:42.799Z,83.83
2023-04-15T22:06:11.176Z,83.98
2023-04-15T22:08:52.562Z,84.07
2023-04-15T22:11:28.689Z,83.90
2023-04-15T22:13:57.870Z,84.15
2023-04-15T22:16:26.690Z,84.36
2023-04-15T22:18:55.734Z,84.44
2023-04-15T22:21:23.935Z,84.39
2023-04-15T22:24:38.792Z,84.23
2023-04-15T22:26:41.952Z,84.36
2023-04-15T22:29:10.741Z,84.32
2023-04-15T22:31:38.789Z,84.68
2023-04-15T22:34:06.908Z,84.83
2023-04-15T22:36:35.134Z,84.83
2023-04-15T22:39:03.175Z,84.51
2023-04-15T22:41:31.368Z,84.40
2023-04-15T22:43:59.521Z,84.58
2023-04-15T22:46:27.514Z,84.45
2023-04-15T22:48:55.909Z,84.68
2023-04-15T22:51:28.028Z,84.67
2023-04-15T22:53:56.577Z,84.62
2023-04-15T22:56:24.776Z,84.71
2023-04-15T22:58:52.736Z,84.59
2023-04-15T23:01:21.508Z,84.82
2023-04-15T23:03:56.304Z,84.73
2023-04-15T23:06:25.820Z,84.66
2023-04-15T23:08:54.322Z,85.12
2023-04-15T23:11:22.422Z,85.10
2023-04-15T23:13:50.919Z,84.94
2023-04-15T23:16:19.054Z,84.66
2023-04-15T23:18:47.012Z,84.79
2023-04-15T23:21:15.159Z,85.00
2023-04-15T23:23:43.169Z,84.85
2023-04-15T23:26:11.015Z,85.17
2023-04-15T23:28:39.157Z,84.92
2023-04-15T23:31:07.241Z,85.00
2023-04-15T23:33:35.208Z,85.14
2023-04-15T23:36:06.710Z,85.15
2023-04-15T23:38:35.456Z,85.05
2023-04-15T23:41:03.446Z,85.13
2023-04-15T23:43:31.687Z,85.38
2023-04-15T23:45:59.748Z,85.44
2023-04-15T23:48:27.679Z,85.39
2023-04-15T23:50:56.232Z,85.18
2023-04-15T23:53:24.322Z,85.19
2023-04-15T23:55:52.174Z,85.20
2023-04-15T23:58:20.443Z,85.44
